createdAt,value
2022-08-16T00:00:03.285Z,99.90
2022-08-16T00:02:32.249Z,99.90
2022-08-16T00:05:02.067Z,99.90
2022-08-16T00:07:30.415Z,99.90
2022-08-16T00:09:59.236Z,99.90
2022-08-16T00:12:28.045Z,99.90
2022-08-16T00:14:57.228Z,99.90
2022-08-16T00:17:26.246Z,99.90
2022-08-16T00:19:56.743Z,99.90
2022-08-16T00:22:27.787Z,99.90
2022-08-16T00:24:56.106Z,99.90
2022-08-16T00:27:25.113Z,99.90
2022-08-16T00:30:08.947Z,99.90
2022-08-16T00:32:45.267Z,99.90
2022-08-16T00:35:16.867Z,99.90
2022-08-16T00:37:57.898Z,99.90
2022-08-16T00:40:43.487Z,99.90
2022-08-16T00:43:19.225Z,99.90
2022-08-16T00:46:00.150Z,99.90
2022-08-16T00:48:31.757Z,99.90
2022-08-16T00:51:16.080Z,99.90
2022-08-16T00:53:47.632Z,99.90
2022-08-16T00:56:58.119Z,99.90
2022-08-16T00:59:08.614Z,99.90
2022-08-16T01:01:37.171Z,99.90
2022-08-16T01:04:07.294Z,99.90
2022-08-16T01:07:02.264Z,99.90
2022-08-16T01:09:34.240Z,99.90
2022-08-16T01:12:04.650Z,99.90
2022-08-16T01:14:43.508Z,99.90
2022-08-16T01:17:12.998Z,99.90
2022-08-16T01:19:44.124Z,99.90
2022-08-16T01:22:48.345Z,99.90
2022-08-16T01:25:12.911Z,99.90
2022-08-16T01:27:45.127Z,99.90
2022-08-16T01:30:20.471Z,99.90
2022-08-16T01:32:59.621Z,99.90
2022-08-16T01:35:36.356Z,99.90
2022-08-16T01:38:19.670Z,99.90
2022-08-16T01:40:51.637Z,99.90
2022-08-16T01:43:19.774Z,99.90
2022-08-16T01:45:57.800Z,99.90
2022-08-16T01:48:29.692Z,99.90
2022-08-16T01:51:09.299Z,99.90
2022-08-16T01:53:45.330Z,99.90
2022-08-16T01:56:26.902Z,99.90
2022-08-16T01:58:57.148Z,99.90
2022-08-16T02:01:28.395Z,99.90
2022-08-16T02:03:58.687Z,99.90
2022-08-16T02:06:39.672Z,99.90
2022-08-16T02:09:17.903Z,99.90
2022-08-16T02:11:53.146Z,99.90
2022-08-16T02:14:26.206Z,99.90
2022-08-16T02:16:55.201Z,99.90
2022-08-16T02:20:00.203Z,99.90
2022-08-16T02:22:34.288Z,99.90
2022-08-16T02:25:05.637Z,99.90
2022-08-16T02:27:35.523Z,99.90
2022-08-16T02:30:06.467Z,99.90
2022-08-16T02:32:50.709Z,99.90
2022-08-16T02:35:23.250Z,99.90
2022-08-16T02:37:53.444Z,99.90
2022-08-16T02:40:26.203Z,99.90
2022-08-16T02:42:57.029Z,99.90
2022-08-16T02:45:28.193Z,99.90
2022-08-16T02:48:01.586Z,99.90
2022-08-16T02:50:54.052Z,99.90
2022-08-16T02:53:32.531Z,99.90
2022-08-16T02:56:00.779Z,99.90
2022-08-16T02:58:34.160Z,99.90
2022-08-16T03:01:02.911Z,99.90
2022-08-16T03:04:29.628Z,99.90
2022-08-16T03:06:41.383Z,99.90
2022-08-16T03:09:13.903Z,99.90
2022-08-16T03:11:44.724Z,99.90
2022-08-16T03:14:21.239Z,99.90
2022-08-16T03:16:59.052Z,99.90
2022-08-16T03:19:46.779Z,99.90
2022-08-16T03:22:19.355Z,99.90
2022-08-16T03:24:57.746Z,99.90
2022-08-16T03:27:31.283Z,99.90
2022-08-16T03:30:16.948Z,99.90
2022-08-16T03:32:48.017Z,99.90
2022-08-16T03:35:21.822Z,99.90
2022-08-16T03:38:02.570Z,99.90
2022-08-16T03:40:33.243Z,99.90
2022-08-16T03:43:20.482Z,99.90
2022-08-16T03:45:53.380Z,99.90
2022-08-16T03:48:36.393Z,99.90
2022-08-16T03:51:08.565Z,99.90
2022-08-16T03:53:38.587Z,99.90
2022-08-16T03:56:19.564Z,99.90
2022-08-16T03:58:51.019Z,99.90
2022-08-16T04:01:23.317Z,99.90
2022-08-16T04:03:52.865Z,99.90
2022-08-16T04:06:23.279Z,99.90
2022-08-16T04:08:51.827Z,99.90
2022-08-16T04:11:20.289Z,99.90
2022-08-16T04:14:00.095Z,99.90
2022-08-16T04:16:38.019Z,99.90
2022-08-16T04:19:06.783Z,99.90
2022-08-16T04:21:47.159Z,99.90
2022-08-16T04:24:16.705Z,99.90
2022-08-16T04:26:46.346Z,99.90
2022-08-16T04:29:24.513Z,99.90
2022-08-16T04:31:57.801Z,99.90
2022-08-16T04:34:28.885Z,99.90
2022-08-16T04:37:01.029Z,99.90
2022-08-16T04:39:45.796Z,99.90
2022-08-16T04:42:16.215Z,99.90
2022-08-16T04:44:53.509Z,99.90
2022-08-16T04:47:25.550Z,99.90
2022-08-16T04:50:01.773Z,99.90
2022-08-16T04:52:34.608Z,99.90
2022-08-16T04:55:08.551Z,99.90
2022-08-16T04:57:37.918Z,99.90
2022-08-16T05:00:32.308Z,99.90
2022-08-16T05:03:07.501Z,99.90
2022-08-16T05:05:45.212Z,99.90
2022-08-16T05:08:28.020Z,99.90
2022-08-16T05:11:00.343Z,99.90
2022-08-16T05:13:40.322Z,99.90
2022-08-16T05:16:11.647Z,99.90
2022-08-16T05:18:41.580Z,99.90
2022-08-16T05:21:12.606Z,99.90
2022-08-16T05:23:40.988Z,99.90
2022-08-16T05:26:19.813Z,99.90
2022-08-16T05:28:55.751Z,99.90
2022-08-16T05:31:29.530Z,99.90
2022-08-16T05:34:00.715Z,99.90
2022-08-16T05:36:36.612Z,99.90
2022-08-16T05:39:07.773Z,99.90
2022-08-16T05:41:45.314Z,99.90
2022-08-16T05:44:24.213Z,99.90
2022-08-16T05:46:55.113Z,99.90
2022-08-16T05:49:39.595Z,99.90
2022-08-16T05:52:11.608Z,99.90
2022-08-16T05:54:46.611Z,99.90
2022-08-16T05:57:17.629Z,99.90
2022-08-16T05:59:50.644Z,99.90
2022-08-16T06:02:33.479Z,99.90
2022-08-16T06:05:03.791Z,99.90
2022-08-16T06:07:32.521Z,99.90
2022-08-16T06:10:01.585Z,99.90
2022-08-16T06:12:31.032Z,99.90
2022-08-16T06:15:01.938Z,99.90
2022-08-16T06:17:42.253Z,99.90
2022-08-16T06:20:23.471Z,99.90
2022-08-16T06:22:59.047Z,99.90
2022-08-16T06:25:36.407Z,99.90
2022-08-16T06:28:09.528Z,99.90
2022-08-16T06:30:44.106Z,99.90
2022-08-16T06:33:22.031Z,99.90
2022-08-16T06:35:55.089Z,99.90
2022-08-16T06:38:32.205Z,99.90
2022-08-16T06:41:05.470Z,99.90
2022-08-16T06:43:34.873Z,99.90
2022-08-16T06:46:06.139Z,99.90
2022-08-16T06:48:43.225Z,99.90
2022-08-16T06:51:14.735Z,99.90
2022-08-16T06:53:43.158Z,99.90
2022-08-16T06:56:14.382Z,99.90
2022-08-16T06:58:47.037Z,99.90
2022-08-16T07:01:15.935Z,99.90
2022-08-16T07:03:55.864Z,99.90
2022-08-16T07:06:27.685Z,99.90
2022-08-16T07:08:56.876Z,99.90
2022-08-16T07:11:45.797Z,99.90
2022-08-16T07:14:26.224Z,99.90
2022-08-16T07:16:59.109Z,99.90
2022-08-16T07:20:01.684Z,99.90
2022-08-16T07:22:37.345Z,99.90
2022-08-16T07:25:08.598Z,99.90
2022-08-16T07:27:38.775Z,99.90
2022-08-16T07:30:45.291Z,99.90
2022-08-16T07:32:59.833Z,99.90
2022-08-16T07:35:28.497Z,99.90
2022-08-16T07:37:58.550Z,99.90
2022-08-16T07:40:58.038Z,99.90
2022-08-16T07:43:15.474Z,99.90
2022-08-16T07:45:44.748Z,99.90
2022-08-16T07:48:15.470Z,99.90
2022-08-16T07:50:57.850Z,99.90
2022-08-16T07:53:30.254Z,99.90
2022-08-16T07:56:00.709Z,99.90
2022-08-16T07:58:35.079Z,99.90
2022-08-16T08:01:10.930Z,99.90
2022-08-16T08:03:47.671Z,99.90
2022-08-16T08:06:17.473Z,99.90
2022-08-16T08:08:50.424Z,99.90
2022-08-16T08:11:21.444Z,99.90
2022-08-16T08:13:50.765Z,99.90
2022-08-16T08:16:21.391Z,99.90
2022-08-16T08:18:55.925Z,99.90
2022-08-16T08:21:59.746Z,99.90
2022-08-16T08:24:18.433Z,99.90
2022-08-16T08:26:49.783Z,99.90
2022-08-16T08:29:22.865Z,99.90
2022-08-16T08:31:53.920Z,99.90
2022-08-16T08:34:23.194Z,99.90
2022-08-16T08:36:54.525Z,99.90
2022-08-16T08:39:25.722Z,99.90
2022-08-16T08:41:53.868Z,99.90
2022-08-16T08:44:29.174Z,99.90
2022-08-16T08:47:01.749Z,99.90
2022-08-16T08:49:45.998Z,99.90
2022-08-16T08:52:35.194Z,99.90
2022-08-16T08:55:10.470Z,99.90
2022-08-16T08:57:41.024Z,99.90
2022-08-16T09:00:13.082Z,99.90
2022-08-16T09:02:44.518Z,99.90
2022-08-16T09:05:16.191Z,99.90
2022-08-16T09:08:01.438Z,99.90
2022-08-16T09:10:32.590Z,99.90
2022-08-16T09:13:02.873Z,99.90
2022-08-16T09:15:32.674Z,99.90
2022-08-16T09:18:25.508Z,99.90
2022-08-16T09:20:59.719Z,99.90
2022-08-16T09:23:29.262Z,99.70
2022-08-16T09:25:59.324Z,99.90
2022-08-16T09:28:38.087Z,99.90
2022-08-16T09:31:17.401Z,99.90
2022-08-16T09:33:46.251Z,99.90
2022-08-16T09:36:32.211Z,99.90
2022-08-16T09:39:03.292Z,99.90
2022-08-16T09:41:33.645Z,99.90
2022-08-16T09:45:11.180Z,98.10
2022-08-16T09:46:55.927Z,98.30
2022-08-16T09:49:36.998Z,99.90
2022-08-16T09:52:06.212Z,99.90
2022-08-16T09:54:44.370Z,99.90
2022-08-16T09:57:14.286Z,99.90
2022-08-16T09:59:43.486Z,99.90
2022-08-16T10:02:27.326Z,96.00
2022-08-16T10:04:57.446Z,97.70
2022-08-16T10:07:26.146Z,99.90
2022-08-16T10:10:12.854Z,99.90
2022-08-16T10:13:06.610Z,98.10
2022-08-16T10:15:36.591Z,97.10
2022-08-16T10:18:41.028Z,99.40
2022-08-16T10:20:59.529Z,97.50
2022-08-16T10:23:29.686Z,97.60
2022-08-16T10:27:19.262Z,96.60
2022-08-16T10:28:47.414Z,98.40
2022-08-16T10:31:45.457Z,96.80
2022-08-16T10:34:23.999Z,97.80
2022-08-16T10:36:55.512Z,96.40
2022-08-16T10:39:23.794Z,95.10
2022-08-16T10:41:52.477Z,97.10
2022-08-16T10:44:21.921Z,93.00
2022-08-16T10:46:50.303Z,94.50
2022-08-16T10:49:18.503Z,96.40
2022-08-16T10:52:03.072Z,95.30
2022-08-16T10:54:58.456Z,97.90
2022-08-16T10:57:24.399Z,95.40
2022-08-16T10:59:58.298Z,94.40
2022-08-16T11:03:00.829Z,96.90
2022-08-16T11:05:18.476Z,95.60
2022-08-16T11:07:52.577Z,94.10
2022-08-16T11:19:05.328Z,92.00
2022-08-16T11:22:38.878Z,94.30
2022-08-16T11:24:39.475Z,94.20
2022-08-16T11:27:32.592Z,92.00
2022-08-16T11:29:58.402Z,93.50
2022-08-16T11:32:32.303Z,91.40
2022-08-16T11:35:14.122Z,93.30
2022-08-16T11:38:46.647Z,93.50
2022-08-16T11:40:47.058Z,93.80
2022-08-16T11:43:23.511Z,92.20
2022-08-16T11:45:54.563Z,90.30
2022-08-16T11:48:27.514Z,93.10
2022-08-16T11:50:56.513Z,92.40
2022-08-16T11:53:25.558Z,92.10
2022-08-16T11:55:55.340Z,91.60
2022-08-16T11:58:25.386Z,91.30
2022-08-16T12:00:55.609Z,94.90
2022-08-16T12:03:34.467Z,93.30
2022-08-16T12:06:08.160Z,93.50
2022-08-16T12:08:41.293Z,92.80
2022-08-16T12:11:11.463Z,91.40
2022-08-16T12:13:40.749Z,92.80
2022-08-16T12:16:09.534Z,91.30
2022-08-16T12:18:40.507Z,92.60
2022-08-16T12:21:09.852Z,90.50
2022-08-16T12:23:38.957Z,91.80
2022-08-16T12:26:07.953Z,92.30
2022-08-16T12:28:55.081Z,92.20
2022-08-16T12:31:26.301Z,87.50
2022-08-16T12:33:57.625Z,90.10
2022-08-16T12:36:29.921Z,92.00
2022-08-16T12:38:59.171Z,91.70
2022-08-16T12:41:27.582Z,91.00
2022-08-16T12:43:57.028Z,87.80
2022-08-16T12:46:31.200Z,88.10
2022-08-16T12:49:01.124Z,90.10
2022-08-16T12:51:59.835Z,89.90
2022-08-16T12:54:21.820Z,90.90
2022-08-16T12:56:50.372Z,90.40
2022-08-16T12:59:20.801Z,88.40
2022-08-16T13:01:55.430Z,90.90
2022-08-16T13:04:28.844Z,91.10
2022-08-16T13:09:42.224Z,88.60
2022-08-16T13:12:20.986Z,86.00
2022-08-16T13:14:50.362Z,87.20
2022-08-16T13:17:21.347Z,86.50
2022-08-16T13:20:10.971Z,88.30
2022-08-16T13:22:43.624Z,86.70
2022-08-16T13:25:20.993Z,87.00
2022-08-16T13:28:01.789Z,88.70
2022-08-16T13:30:41.971Z,86.50
2022-08-16T13:33:12.705Z,88.20
2022-08-16T13:35:55.966Z,89.00
2022-08-16T13:38:25.826Z,89.00
2022-08-16T13:40:56.919Z,89.00
2022-08-16T13:43:26.583Z,84.20
2022-08-16T13:45:55.946Z,88.10
2022-08-16T13:48:25.960Z,90.00
2022-08-16T13:50:58.030Z,86.50
2022-08-16T13:53:30.922Z,86.50
2022-08-16T13:56:00.763Z,88.20
2022-08-16T13:58:37.416Z,86.30
2022-08-16T14:01:19.444Z,85.30
2022-08-16T14:03:47.976Z,85.70
2022-08-16T14:06:18.614Z,86.20
2022-08-16T14:08:58.841Z,86.10
2022-08-16T14:11:34.163Z,84.70
2022-08-16T14:14:05.290Z,85.40
2022-08-16T14:16:34.929Z,83.60
2022-08-16T14:19:03.689Z,86.30
2022-08-16T14:21:35.392Z,86.40
2022-08-16T14:24:12.862Z,87.40
2022-08-16T14:26:51.159Z,87.40
2022-08-16T14:29:21.340Z,86.70
2022-08-16T14:31:53.879Z,85.60
2022-08-16T14:34:25.757Z,86.40
2022-08-16T14:36:59.446Z,85.90
2022-08-16T14:39:28.033Z,86.00
2022-08-16T14:41:56.192Z,89.10
2022-08-16T14:44:26.305Z,87.50
2022-08-16T14:46:55.279Z,85.90
2022-08-16T14:49:24.377Z,87.10
2022-08-16T14:51:52.574Z,85.70
2022-08-16T14:54:22.412Z,87.50
2022-08-16T14:56:56.924Z,87.70
2022-08-16T14:59:25.352Z,87.40
2022-08-16T15:01:58.841Z,86.50
2022-08-16T15:04:39.541Z,87.30
2022-08-16T15:07:17.890Z,87.50
2022-08-16T15:10:01.191Z,85.60
2022-08-16T15:12:33.880Z,87.90
2022-08-16T15:15:12.489Z,86.80
2022-08-16T15:17:54.604Z,86.80
2022-08-16T15:20:29.598Z,87.50
2022-08-16T15:22:59.610Z,86.50
2022-08-16T15:25:32.114Z,86.00
2022-08-16T15:28:04.715Z,87.20
2022-08-16T15:30:57.907Z,88.40
2022-08-16T15:33:26.283Z,86.00
2022-08-16T15:35:55.155Z,86.30
2022-08-16T15:38:57.480Z,88.40
2022-08-16T15:41:28.314Z,86.30
2022-08-16T15:44:05.484Z,88.50
2022-08-16T15:46:56.389Z,86.40
2022-08-16T15:49:37.272Z,86.40
2022-08-16T15:52:12.142Z,86.90
2022-08-16T15:54:55.283Z,86.00
2022-08-16T15:57:26.838Z,84.70
2022-08-16T15:59:56.376Z,84.50
2022-08-16T16:02:34.015Z,84.90
2022-08-16T16:05:04.498Z,84.20
2022-08-16T16:07:34.142Z,84.10
2022-08-16T16:10:05.353Z,84.90
2022-08-16T16:12:51.582Z,85.30
2022-08-16T16:15:25.275Z,82.60
2022-08-16T16:17:54.722Z,84.40
2022-08-16T16:20:27.489Z,84.70
2022-08-16T16:22:58.010Z,82.70
2022-08-16T16:25:28.262Z,85.80
2022-08-16T16:28:00.190Z,85.70
2022-08-16T16:30:38.122Z,84.00
2022-08-16T16:33:15.740Z,85.60
2022-08-16T16:35:55.436Z,83.20
2022-08-16T16:38:31.157Z,83.20
2022-08-16T16:41:00.504Z,83.20
2022-08-16T16:43:31.823Z,83.10
2022-08-16T16:46:01.954Z,85.30
2022-08-16T16:48:34.774Z,84.50
2022-08-16T16:51:09.454Z,82.90
2022-08-16T16:53:41.138Z,82.90
2022-08-16T16:56:20.127Z,84.00
2022-08-16T16:59:01.065Z,82.50
2022-08-16T17:01:41.328Z,83.30
2022-08-16T17:04:31.379Z,85.00
2022-08-16T17:07:01.207Z,82.80
2022-08-16T17:09:29.943Z,83.50
2022-08-16T17:11:58.577Z,84.10
2022-08-16T17:14:33.216Z,82.80
2022-08-16T17:17:06.816Z,84.40
2022-08-16T17:19:40.724Z,83.50
2022-08-16T17:22:14.344Z,84.30
2022-08-16T17:24:44.806Z,85.80
2022-08-16T17:27:15.332Z,85.80
2022-08-16T17:29:51.599Z,85.00
2022-08-16T17:32:33.936Z,85.10
2022-08-16T17:38:05.963Z,86.20
2022-08-16T17:39:27.208Z,85.40
2022-08-16T17:40:50.516Z,86.10
2022-08-16T17:43:28.786Z,86.40
2022-08-16T17:45:59.121Z,86.40
2022-08-16T17:48:28.472Z,86.70
2022-08-16T17:50:57.210Z,86.70
2022-08-16T17:53:25.840Z,86.90
2022-08-16T17:55:54.651Z,87.20
2022-08-16T17:58:24.317Z,87.40
2022-08-16T18:00:54.975Z,87.60
2022-08-16T18:04:02.463Z,88.10
2022-08-16T18:06:18.769Z,88.40
2022-08-16T18:08:49.462Z,88.70
2022-08-16T18:11:25.657Z,89.30
2022-08-16T18:13:55.602Z,89.70
2022-08-16T18:16:24.298Z,90.00
2022-08-16T18:18:53.770Z,90.00
2022-08-16T18:21:40.723Z,88.70
2022-08-16T18:24:09.903Z,89.20
2022-08-16T18:26:39.731Z,89.60
2022-08-16T18:29:08.610Z,90.00
2022-08-16T18:31:36.799Z,90.80
2022-08-16T18:34:07.444Z,91.60
2022-08-16T18:36:37.149Z,91.60
2022-08-16T18:39:06.079Z,91.20
2022-08-16T18:41:37.216Z,91.20
2022-08-16T18:44:26.604Z,91.60
2022-08-16T18:46:56.359Z,91.90
2022-08-16T18:49:26.289Z,91.90
2022-08-16T18:51:58.198Z,92.10
2022-08-16T18:54:28.255Z,92.20
2022-08-16T18:56:58.302Z,92.30
2022-08-16T18:59:33.143Z,92.50
2022-08-16T19:02:04.472Z,92.80
2022-08-16T19:04:55.770Z,93.00
2022-08-16T19:07:31.179Z,92.90
2022-08-16T19:10:00.999Z,93.10
2022-08-16T19:12:38.145Z,93.40
2022-08-16T19:15:14.171Z,93.70
2022-08-16T19:17:42.980Z,93.80
2022-08-16T19:20:14.326Z,95.30
2022-08-16T19:25:46.835Z,96.40
2022-08-16T19:28:33.411Z,95.90
2022-08-16T19:31:05.463Z,95.50
2022-08-16T19:33:33.928Z,95.10
2022-08-16T19:36:03.464Z,95.20
2022-08-16T19:38:32.189Z,95.10
2022-08-16T19:41:00.315Z,95.30
2022-08-16T19:43:28.387Z,95.60
2022-08-16T19:45:56.660Z,96.20
2022-08-16T19:48:24.750Z,95.90
2022-08-16T19:50:52.807Z,96.30
2022-08-16T19:53:22.363Z,99.50
2022-08-16T19:55:50.515Z,99.90
2022-08-16T19:58:20.224Z,99.90
2022-08-16T20:00:52.478Z,99.90
2022-08-16T20:03:25.444Z,99.90
2022-08-16T20:05:54.122Z,99.90
2022-08-16T20:08:23.769Z,99.90
2022-08-16T20:10:52.160Z,99.90
2022-08-16T20:13:24.215Z,99.90
2022-08-16T20:15:53.003Z,99.90
2022-08-16T20:18:25.242Z,99.90
2022-08-16T20:20:54.463Z,99.90
2022-08-16T20:23:25.187Z,99.90
2022-08-16T20:25:56.039Z,99.90
2022-08-16T20:28:40.657Z,99.90
2022-08-16T20:31:12.720Z,99.90
2022-08-16T20:33:41.005Z,99.90
2022-08-16T20:36:09.615Z,99.90
2022-08-16T20:38:47.864Z,99.90
2022-08-16T20:41:16.518Z,99.90
2022-08-16T20:43:45.517Z,99.90
2022-08-16T20:46:15.295Z,99.90
2022-08-16T20:48:43.933Z,99.90
2022-08-16T20:51:12.567Z,99.90
2022-08-16T20:53:41.822Z,99.90
2022-08-16T20:56:12.787Z,99.90
2022-08-16T20:58:40.938Z,99.90
2022-08-16T21:01:09.473Z,99.90
2022-08-16T21:03:37.770Z,99.90
2022-08-16T21:06:06.519Z,99.90
2022-08-16T21:08:53.552Z,99.90
2022-08-16T21:11:27.867Z,99.90
2022-08-16T21:14:00.362Z,99.90
2022-08-16T21:16:29.292Z,99.90
2022-08-16T21:18:57.830Z,99.90
2022-08-16T21:21:26.222Z,99.90
2022-08-16T21:24:01.762Z,99.90
2022-08-16T21:26:31.409Z,99.90
2022-08-16T21:28:59.507Z,99.90
2022-08-16T21:31:27.601Z,99.90
2022-08-16T21:33:56.082Z,99.90
2022-08-16T21:36:35.193Z,99.90
2022-08-16T21:39:06.316Z,99.90
2022-08-16T21:41:38.361Z,99.90
2022-08-16T21:44:06.744Z,99.90
2022-08-16T21:46:34.947Z,99.90
2022-08-16T21:49:04.664Z,99.90
2022-08-16T21:51:33.376Z,99.90
2022-08-16T21:54:01.484Z,99.90
2022-08-16T21:56:29.961Z,99.90
2022-08-16T21:58:59.486Z,99.90
2022-08-16T22:01:27.682Z,99.90
2022-08-16T22:04:03.542Z,99.90
2022-08-16T22:06:45.236Z,99.90
2022-08-16T22:09:16.264Z,99.90
2022-08-16T22:11:44.815Z,99.90
2022-08-16T22:14:14.715Z,99.90
2022-08-16T22:16:43.510Z,99.90
2022-08-16T22:19:13.283Z,99.90
2022-08-16T22:21:41.925Z,99.90
2022-08-16T22:24:10.910Z,99.90
2022-08-16T22:26:43.260Z,99.90
2022-08-16T22:29:15.201Z,99.90
2022-08-16T22:31:44.477Z,99.90
2022-08-16T22:34:13.107Z,99.90
2022-08-16T22:36:41.592Z,99.90
2022-08-16T22:39:13.017Z,99.90
2022-08-16T22:41:43.369Z,99.90
2022-08-16T22:44:12.857Z,99.90
2022-08-16T22:46:42.815Z,99.90
2022-08-16T22:49:11.834Z,99.90
2022-08-16T22:51:40.300Z,99.90
2022-08-16T22:54:41.381Z,99.90
2022-08-16T22:56:57.745Z,99.90
2022-08-16T22:59:26.248Z,99.90
2022-08-16T23:01:56.462Z,99.90
2022-08-16T23:04:25.690Z,99.90
2022-08-16T23:06:54.481Z,99.90
2022-08-16T23:09:22.559Z,99.90
2022-08-16T23:11:52.325Z,99.90
2022-08-16T23:14:20.765Z,99.90
2022-08-16T23:16:49.135Z,99.90
2022-08-16T23:19:19.034Z,99.90
2022-08-16T23:21:49.512Z,99.90
2022-08-16T23:24:19.418Z,99.90
2022-08-16T23:26:49.246Z,99.90
2022-08-16T23:29:24.771Z,99.90
2022-08-16T23:31:56.818Z,99.90
2022-08-16T23:34:28.324Z,99.90
2022-08-16T23:36:56.761Z,99.90
2022-08-16T23:39:25.411Z,99.90
2022-08-16T23:41:53.609Z,99.90
2022-08-16T23:44:55.563Z,99.90
2022-08-16T23:47:10.691Z,99.90
2022-08-16T23:49:57.666Z,99.90
2022-08-16T23:52:48.582Z,99.90
2022-08-16T23:55:17.572Z,99.90
2022-08-16T23:57:47.685Z,99.90
